Fortine, Montana
Current Conditions -  °F | °C
As of 9:55 AM on Saturday 22 Nov 2014 (Local Time) from KGPI Reporting Station
Overcast Overcast  
Wind Chill: 32°   Ceiling: 4200
Heat Index: 39°   Visibility: 10mi
Dew Point: 30°   Wind: 10mph
Humidity: 70%   Direction: 220°SW
Pressure: 29.44"   Gusts: NA
Location:  48.76°N, 114.9°W
Report Text: KGPI 221655Z 22009KT 10SM OVC042 04/M01 A2944 RMK AO2 SLP988 T00391011
Loading
Personal Weather Stations






























Interactive Weather Map New forecast layout! Learn more

10-Day Weather Forecast

Advertisements
Track Severe Weather on mobile